Airfield :
LOGIN :

Register | Disclaimer

   EN    FR    IT 

 










Legend :    VFR   Marginal VFR   IFR   Intensive IFR   Very Intensive IFR
Visi :
Ceiling :
>= 8 km
>= 3000ft
5 to 8 km
1000 to 3000 ft
1500m to 5 km
500 to 1000 ft
800 to 1500m
200 to 500 ft
< 800m
< 200 ft
Symbols :   Thunderstorms  Fog  Heavy snow  Heavy precipitations  Wind > 20 kt
SIGMETs :     Misc.  Thunderstorms  Icing  Turbulence  Mountain Waves  Volcanic Ashes






- Airport Elevation : 359 ft
- IATA code : BVA


LFOB - Beauvais

CURRENT METAR :
  • 192200Z AUTO 33010KT CAVOK 23/16 Q1014 NOSIG

EXPIRED METARs :
  • 192130Z AUTO 31011KT CAVOK 24/17 Q1014 NOSIG
  • 192100Z AUTO 30006KT CAVOK 24/17 Q1014 NOSIG
  • 192030Z AUTO 09003KT 9999 FEW011 BKN110 BKN130 26/17 Q1013 NOSIG
  • 192000Z AUTO 11005KT CAVOK 26/17 Q1013 NOSIG
  • 191930Z AUTO 12005KT 9999 FEW017 BKN082 BKN100 27/16 Q1013 NOSIG
  • 191900Z AUTO 11006KT CAVOK 28/17 Q1013 NOSIG
  • 191830Z AUTO 11005KT CAVOK 29/17 Q1013 NOSIG
  • 191800Z AUTO 11006KT CAVOK 30/16 Q1014 NOSIG
  • 191730Z AUTO 11006KT CAVOK 30/15 Q1014 NOSIG

TAF TAF LFOB
Valid from the 19 at 18:00 until the 20 at 18:00 UTC


191700Z 1918/2018 VRB04KT CAVOK
PROB40
TEMPO 2015/2018 VRB15G25KT 4000 SHRA BKN030CB
PROB30
TEMPO 2015/2018 1200 TSRA BKN025CB
ATIS : +33 3 44 11 49 28



MET'MAP, your aeronautical weather chart ! - Copyright ORBIFLY December 2007 - Disclaimer

ORBIFLY MET'MAP TEAM :

Programming & Development : Alexandra Zaïnal
Original concept : Baudouin d'Aumeries
Technical & hardware support : Manuel Goepfert
Assistance : Marc-Olivier Méhu




SOURCES & CREDITS :

   NOAA